sensor_id;sensor_type;location;lat;lon;timestamp;P1;durP1;ratioP1;P2;durP2;ratioP2
17854;SDS011;9053;53.358;6.382;2023-08-20T00:00:21;4.60;;;3.20;;
17854;SDS011;9053;53.358;6.382;2023-08-20T00:02:54;5.93;;;3.70;;
17854;SDS011;9053;53.358;6.382;2023-08-20T00:05:30;6.00;;;3.92;;
17854;SDS011;9053;53.358;6.382;2023-08-20T00:08:03;5.97;;;3.63;;
17854;SDS011;9053;53.358;6.382;2023-08-20T00:10:33;6.22;;;3.70;;
17854;SDS011;9053;53.358;6.382;2023-08-20T00:13:03;4.88;;;3.47;;
17854;SDS011;9053;53.358;6.382;2023-08-20T00:15:33;5.75;;;3.40;;
17854;SDS011;9053;53.358;6.382;2023-08-20T00:18:04;4.40;;;3.42;;
17854;SDS011;9053;53.358;6.382;2023-08-20T00:20:35;5.68;;;3.38;;
17854;SDS011;9053;53.358;6.382;2023-08-20T00:23:09;6.38;;;3.67;;
17854;SDS011;9053;53.358;6.382;2023-08-20T00:25:40;6.88;;;3.67;;
17854;SDS011;9053;53.358;6.382;2023-08-20T00:28:11;5.72;;;3.58;;
17854;SDS011;9053;53.358;6.382;2023-08-20T00:30:41;4.38;;;3.80;;
17854;SDS011;9053;53.358;6.382;2023-08-20T00:33:11;5.03;;;3.45;;
17854;SDS011;9053;53.358;6.382;2023-08-20T00:35:41;6.07;;;3.53;;
17854;SDS011;9053;53.358;6.382;2023-08-20T00:38:14;4.72;;;3.90;;
17854;SDS011;9053;53.358;6.382;2023-08-20T00:40:44;5.32;;;3.00;;
17854;SDS011;9053;53.358;6.382;2023-08-20T00:43:13;6.10;;;3.30;;
17854;SDS011;9053;53.358;6.382;2023-08-20T00:45:43;4.50;;;3.00;;
17854;SDS011;9053;53.358;6.382;2023-08-20T00:48:13;4.05;;;3.50;;
17854;SDS011;9053;53.358;6.382;2023-08-20T00:50:44;6.45;;;3.47;;
17854;SDS011;9053;53.358;6.382;2023-08-20T00:53:17;3.60;;;2.92;;
17854;SDS011;9053;53.358;6.382;2023-08-20T00:55:49;4.50;;;2.88;;
17854;SDS011;9053;53.358;6.382;2023-08-20T00:58:19;3.70;;;2.67;;
17854;SDS011;9053;53.358;6.382;2023-08-20T01:00:49;4.15;;;3.08;;
17854;SDS011;9053;53.358;6.382;2023-08-20T01:03:18;4.50;;;3.47;;
17854;SDS011;9053;53.358;6.382;2023-08-20T01:05:50;6.15;;;4.10;;
17854;SDS011;9053;53.358;6.382;2023-08-20T01:08:33;7.53;;;3.75;;
17854;SDS011;9053;53.358;6.382;2023-08-20T01:11:09;5.93;;;3.72;;
17854;SDS011;9053;53.358;6.382;2023-08-20T01:13:46;5.07;;;3.67;;
17854;SDS011;9053;53.358;6.382;2023-08-20T01:16:16;7.15;;;3.60;;
17854;SDS011;9053;53.358;6.382;2023-08-20T01:18:46;5.90;;;3.33;;
17854;SDS011;9053;53.358;6.382;2023-08-20T01:21:20;5.10;;;3.55;;
17854;SDS011;9053;53.358;6.382;2023-08-20T01:24:20;4.45;;;3.10;;
17854;SDS011;9053;53.358;6.382;2023-08-20T01:27:07;5.40;;;3.20;;
17854;SDS011;9053;53.358;6.382;2023-08-20T01:29:54;5.13;;;3.30;;
17854;SDS011;9053;53.358;6.382;2023-08-20T01:32:25;4.30;;;3.20;;
17854;SDS011;9053;53.358;6.382;2023-08-20T01:34:55;5.85;;;3.08;;
17854;SDS011;9053;53.358;6.382;2023-08-20T01:37:25;5.55;;;3.67;;
17854;SDS011;9053;53.358;6.382;2023-08-20T01:39:55;3.92;;;2.95;;
17854;SDS011;9053;53.358;6.382;2023-08-20T01:42:25;3.53;;;2.85;;
17854;SDS011;9053;53.358;6.382;2023-08-20T01:44:58;4.82;;;3.22;;
17854;SDS011;9053;53.358;6.382;2023-08-20T01:47:27;4.32;;;3.20;;
17854;SDS011;9053;53.358;6.382;2023-08-20T01:49:58;4.93;;;3.50;;
17854;SDS011;9053;53.358;6.382;2023-08-20T01:52:32;4.50;;;3.05;;
17854;SDS011;9053;53.358;6.382;2023-08-20T01:55:03;5.32;;;3.42;;
17854;SDS011;9053;53.358;6.382;2023-08-20T01:57:33;7.13;;;3.58;;
17854;SDS011;9053;53.358;6.382;2023-08-20T02:00:07;5.50;;;3.50;;
17854;SDS011;9053;53.358;6.382;2023-08-20T02:02:37;5.63;;;4.03;;
17854;SDS011;9053;53.358;6.382;2023-08-20T02:05:07;5.57;;;3.55;;
17854;SDS011;9053;53.358;6.382;2023-08-20T02:07:37;6.53;;;3.80;;
17854;SDS011;9053;53.358;6.382;2023-08-20T02:10:08;4.25;;;3.45;;
17854;SDS011;9053;53.358;6.382;2023-08-20T02:12:38;3.97;;;3.22;;
17854;SDS011;9053;53.358;6.382;2023-08-20T02:15:11;4.93;;;3.53;;
17854;SDS011;9053;53.358;6.382;2023-08-20T02:17:41;3.78;;;3.33;;
17854;SDS011;9053;53.358;6.382;2023-08-20T02:20:11;4.05;;;3.47;;
17854;SDS011;9053;53.358;6.382;2023-08-20T02:22:41;5.05;;;3.50;;
17854;SDS011;9053;53.358;6.382;2023-08-20T02:25:11;3.78;;;3.38;;
17854;SDS011;9053;53.358;6.382;2023-08-20T02:27:41;6.38;;;3.95;;
17854;SDS011;9053;53.358;6.382;2023-08-20T02:30:14;4.90;;;3.58;;
17854;SDS011;9053;53.358;6.382;2023-08-20T02:32:45;4.93;;;3.95;;
17854;SDS011;9053;53.358;6.382;2023-08-20T02:35:15;4.53;;;3.83;;
17854;SDS011;9053;53.358;6.382;2023-08-20T02:37:46;5.20;;;3.40;;
17854;SDS011;9053;53.358;6.382;2023-08-20T02:40:15;5.07;;;3.67;;
17854;SDS011;9053;53.358;6.382;2023-08-20T02:42:46;6.80;;;4.20;;
17854;SDS011;9053;53.358;6.382;2023-08-20T02:45:18;4.70;;;3.60;;
17854;SDS011;9053;53.358;6.382;2023-08-20T02:47:48;6.35;;;3.90;;
17854;SDS011;9053;53.358;6.382;2023-08-20T02:50:18;4.68;;;3.78;;
17854;SDS011;9053;53.358;6.382;2023-08-20T02:52:48;5.07;;;3.72;;
17854;SDS011;9053;53.358;6.382;2023-08-20T02:55:18;5.63;;;3.78;;
17854;SDS011;9053;53.358;6.382;2023-08-20T02:57:47;5.45;;;3.38;;
17854;SDS011;9053;53.358;6.382;2023-08-20T03:00:20;5.32;;;3.80;;
17854;SDS011;9053;53.358;6.382;2023-08-20T03:02:50;6.05;;;3.55;;
17854;SDS011;9053;53.358;6.382;2023-08-20T03:05:20;6.07;;;4.07;;
17854;SDS011;9053;53.358;6.382;2023-08-20T03:07:50;5.22;;;3.55;;
17854;SDS011;9053;53.358;6.382;2023-08-20T03:10:20;5.30;;;3.80;;
17854;SDS011;9053;53.358;6.382;2023-08-20T03:12:50;4.47;;;3.35;;
17854;SDS011;9053;53.358;6.382;2023-08-20T03:15:22;5.68;;;3.10;;
17854;SDS011;9053;53.358;6.382;2023-08-20T03:17:52;4.13;;;3.05;;
17854;SDS011;9053;53.358;6.382;2023-08-20T03:20:22;6.40;;;3.63;;
17854;SDS011;9053;53.358;6.382;2023-08-20T03:22:53;5.50;;;3.90;;
17854;SDS011;9053;53.358;6.382;2023-08-20T03:25:24;6.47;;;3.75;;
17854;SDS011;9053;53.358;6.382;2023-08-20T03:27:56;7.05;;;4.47;;
17854;SDS011;9053;53.358;6.382;2023-08-20T03:30:29;5.25;;;3.47;;
17854;SDS011;9053;53.358;6.382;2023-08-20T03:33:00;5.28;;;4.07;;
17854;SDS011;9053;53.358;6.382;2023-08-20T03:35:30;4.60;;;3.42;;
17854;SDS011;9053;53.358;6.382;2023-08-20T03:38:00;6.90;;;3.88;;
17854;SDS011;9053;53.358;6.382;2023-08-20T03:40:30;4.95;;;3.63;;
17854;SDS011;9053;53.358;6.382;2023-08-20T03:43:00;5.05;;;3.70;;
17854;SDS011;9053;53.358;6.382;2023-08-20T03:45:32;6.57;;;4.18;;
17854;SDS011;9053;53.358;6.382;2023-08-20T03:48:02;6.68;;;4.07;;
17854;SDS011;9053;53.358;6.382;2023-08-20T03:50:33;5.15;;;3.60;;
17854;SDS011;9053;53.358;6.382;2023-08-20T03:53:03;6.43;;;3.83;;
17854;SDS011;9053;53.358;6.382;2023-08-20T03:55:33;6.22;;;4.10;;
17854;SDS011;9053;53.358;6.382;2023-08-20T03:58:04;5.25;;;4.07;;
17854;SDS011;9053;53.358;6.382;2023-08-20T04:00:36;6.03;;;4.20;;
17854;SDS011;9053;53.358;6.382;2023-08-20T04:03:06;4.38;;;3.50;;
17854;SDS011;9053;53.358;6.382;2023-08-20T04:05:36;4.25;;;3.85;;
17854;SDS011;9053;53.358;6.382;2023-08-20T04:08:07;4.82;;;3.70;;
17854;SDS011;9053;53.358;6.382;2023-08-20T04:10:41;5.07;;;3.70;;
17854;SDS011;9053;53.358;6.382;2023-08-20T04:13:13;4.72;;;3.97;;
17854;SDS011;9053;53.358;6.382;2023-08-20T04:15:45;4.88;;;3.42;;
17854;SDS011;9053;53.358;6.382;2023-08-20T04:18:15;4.93;;;3.30;;
17854;SDS011;9053;53.358;6.382;2023-08-20T04:20:46;5.15;;;3.72;;
17854;SDS011;9053;53.358;6.382;2023-08-20T04:23:16;5.18;;;3.90;;
17854;SDS011;9053;53.358;6.382;2023-08-20T04:25:46;6.88;;;4.50;;
17854;SDS011;9053;53.358;6.382;2023-08-20T04:28:16;4.97;;;3.90;;
17854;SDS011;9053;53.358;6.382;2023-08-20T04:30:51;5.50;;;3.97;;
17854;SDS011;9053;53.358;6.382;2023-08-20T04:33:21;4.82;;;3.80;;
17854;SDS011;9053;53.358;6.382;2023-08-20T04:35:51;4.70;;;4.07;;
17854;SDS011;9053;53.358;6.382;2023-08-20T04:38:21;4.00;;;3.60;;
17854;SDS011;9053;53.358;6.382;2023-08-20T04:40:51;5.18;;;3.47;;
17854;SDS011;9053;53.358;6.382;2023-08-20T04:43:21;5.28;;;4.20;;
17854;SDS011;9053;53.358;6.382;2023-08-20T04:45:54;5.13;;;4.03;;
17854;SDS011;9053;53.358;6.382;2023-08-20T04:48:23;5.65;;;3.97;;
17854;SDS011;9053;53.358;6.382;2023-08-20T04:50:53;6.55;;;4.82;;
17854;SDS011;9053;53.358;6.382;2023-08-20T04:53:23;6.28;;;4.78;;
17854;SDS011;9053;53.358;6.382;2023-08-20T04:55:54;6.43;;;4.28;;
17854;SDS011;9053;53.358;6.382;2023-08-20T04:58:24;5.40;;;4.45;;
17854;SDS011;9053;53.358;6.382;2023-08-20T05:00:56;5.72;;;4.32;;
17854;SDS011;9053;53.358;6.382;2023-08-20T05:03:26;3.72;;;3.40;;
17854;SDS011;9053;53.358;6.382;2023-08-20T05:05:56;3.25;;;2.80;;
17854;SDS011;9053;53.358;6.382;2023-08-20T05:08:26;3.05;;;2.45;;
17854;SDS011;9053;53.358;6.382;2023-08-20T05:10:56;4.25;;;3.20;;
17854;SDS011;9053;53.358;6.382;2023-08-20T05:13:27;3.72;;;2.83;;
17854;SDS011;9053;53.358;6.382;2023-08-20T05:16:01;4.82;;;2.95;;
17854;SDS011;9053;53.358;6.382;2023-08-20T05:18:30;3.40;;;2.92;;
17854;SDS011;9053;53.358;6.382;2023-08-20T05:21:00;4.50;;;3.78;;
17854;SDS011;9053;53.358;6.382;2023-08-20T05:23:30;4.13;;;3.70;;
17854;SDS011;9053;53.358;6.382;2023-08-20T05:26:00;7.07;;;4.25;;
17854;SDS011;9053;53.358;6.382;2023-08-20T05:28:31;5.35;;;3.60;;
17854;SDS011;9053;53.358;6.382;2023-08-20T05:31:04;4.93;;;3.70;;
17854;SDS011;9053;53.358;6.382;2023-08-20T05:33:34;4.35;;;3.78;;
17854;SDS011;9053;53.358;6.382;2023-08-20T05:36:04;4.85;;;3.38;;
17854;SDS011;9053;53.358;6.382;2023-08-20T05:38:34;5.22;;;3.58;;
17854;SDS011;9053;53.358;6.382;2023-08-20T05:41:04;6.00;;;3.90;;
17854;SDS011;9053;53.358;6.382;2023-08-20T05:43:34;5.95;;;3.65;;
17854;SDS011;9053;53.358;6.382;2023-08-20T05:46:08;4.55;;;3.50;;
17854;SDS011;9053;53.358;6.382;2023-08-20T05:48:38;4.68;;;3.70;;
17854;SDS011;9053;53.358;6.382;2023-08-20T05:51:08;6.07;;;3.95;;
17854;SDS011;9053;53.358;6.382;2023-08-20T05:53:38;5.75;;;3.63;;
17854;SDS011;9053;53.358;6.382;2023-08-20T05:56:08;8.18;;;3.63;;
17854;SDS011;9053;53.358;6.382;2023-08-20T05:58:38;5.50;;;3.63;;
17854;SDS011;9053;53.358;6.382;2023-08-20T06:01:10;3.88;;;3.40;;
17854;SDS011;9053;53.358;6.382;2023-08-20T06:03:40;4.47;;;3.40;;
17854;SDS011;9053;53.358;6.382;2023-08-20T06:06:12;5.32;;;3.47;;
17854;SDS011;9053;53.358;6.382;2023-08-20T06:08:42;5.45;;;3.30;;
17854;SDS011;9053;53.358;6.382;2023-08-20T06:11:32;5.45;;;3.40;;
17854;SDS011;9053;53.358;6.382;2023-08-20T06:14:02;5.10;;;3.85;;
17854;SDS011;9053;53.358;6.382;2023-08-20T06:16:35;5.90;;;3.50;;
17854;SDS011;9053;53.358;6.382;2023-08-20T06:19:04;5.13;;;3.70;;
17854;SDS011;9053;53.358;6.382;2023-08-20T06:21:35;4.93;;;3.63;;
17854;SDS011;9053;53.358;6.382;2023-08-20T06:24:05;4.35;;;3.20;;
17854;SDS011;9053;53.358;6.382;2023-08-20T06:26:35;4.45;;;3.08;;
17854;SDS011;9053;53.358;6.382;2023-08-20T06:29:06;9.02;;;3.88;;
17854;SDS011;9053;53.358;6.382;2023-08-20T06:31:38;4.65;;;2.70;;
17854;SDS011;9053;53.358;6.382;2023-08-20T06:34:09;5.78;;;3.38;;
17854;SDS011;9053;53.358;6.382;2023-08-20T06:36:39;6.00;;;2.88;;
17854;SDS011;9053;53.358;6.382;2023-08-20T06:39:09;4.07;;;2.75;;
17854;SDS011;9053;53.358;6.382;2023-08-20T06:41:38;6.47;;;3.25;;
17854;SDS011;9053;53.358;6.382;2023-08-20T06:44:08;4.72;;;2.95;;
17854;SDS011;9053;53.358;6.382;2023-08-20T06:46:41;4.15;;;2.65;;
17854;SDS011;9053;53.358;6.382;2023-08-20T06:49:11;4.53;;;2.55;;
17854;SDS011;9053;53.358;6.382;2023-08-20T06:51:41;5.28;;;2.72;;
17854;SDS011;9053;53.358;6.382;2023-08-20T06:54:10;4.35;;;2.80;;
17854;SDS011;9053;53.358;6.382;2023-08-20T06:56:41;6.18;;;2.90;;
17854;SDS011;9053;53.358;6.382;2023-08-20T06:59:12;5.22;;;3.13;;
17854;SDS011;9053;53.358;6.382;2023-08-20T07:01:45;4.50;;;3.00;;
17854;SDS011;9053;53.358;6.382;2023-08-20T07:04:15;4.85;;;2.85;;
17854;SDS011;9053;53.358;6.382;2023-08-20T07:06:45;6.78;;;2.95;;
17854;SDS011;9053;53.358;6.382;2023-08-20T07:09:15;6.32;;;3.03;;
17854;SDS011;9053;53.358;6.382;2023-08-20T07:11:45;4.55;;;2.50;;
17854;SDS011;9053;53.358;6.382;2023-08-20T07:14:15;5.15;;;2.47;;
17854;SDS011;9053;53.358;6.382;2023-08-20T07:16:47;6.55;;;2.90;;
17854;SDS011;9053;53.358;6.382;2023-08-20T07:19:17;6.68;;;2.70;;
17854;SDS011;9053;53.358;6.382;2023-08-20T07:21:47;5.45;;;2.67;;
17854;SDS011;9053;53.358;6.382;2023-08-20T07:24:17;5.72;;;2.80;;
17854;SDS011;9053;53.358;6.382;2023-08-20T07:26:52;6.93;;;3.00;;
17854;SDS011;9053;53.358;6.382;2023-08-20T07:29:27;5.68;;;2.83;;
17854;SDS011;9053;53.358;6.382;2023-08-20T07:32:00;5.22;;;3.30;;
17854;SDS011;9053;53.358;6.382;2023-08-20T07:34:30;3.38;;;2.70;;
17854;SDS011;9053;53.358;6.382;2023-08-20T07:37:00;8.88;;;3.50;;
17854;SDS011;9053;53.358;6.382;2023-08-20T07:39:32;9.27;;;4.00;;
17854;SDS011;9053;53.358;6.382;2023-08-20T07:42:02;8.65;;;3.80;;
17854;SDS011;9053;53.358;6.382;2023-08-20T07:44:32;6.45;;;3.08;;
17854;SDS011;9053;53.358;6.382;2023-08-20T07:47:05;7.28;;;3.03;;
17854;SDS011;9053;53.358;6.382;2023-08-20T07:49:35;8.23;;;3.08;;
17854;SDS011;9053;53.358;6.382;2023-08-20T07:52:05;6.15;;;3.50;;
17854;SDS011;9053;53.358;6.382;2023-08-20T07:54:35;4.32;;;2.70;;
17854;SDS011;9053;53.358;6.382;2023-08-20T07:57:05;4.50;;;2.45;;
17854;SDS011;9053;53.358;6.382;2023-08-20T07:59:37;4.50;;;2.22;;
17854;SDS011;9053;53.358;6.382;2023-08-20T08:02:09;6.30;;;3.08;;
17854;SDS011;9053;53.358;6.382;2023-08-20T08:04:39;5.13;;;2.50;;
17854;SDS011;9053;53.358;6.382;2023-08-20T08:07:11;5.70;;;2.40;;
17854;SDS011;9053;53.358;6.382;2023-08-20T08:09:41;3.95;;;2.10;;
17854;SDS011;9053;53.358;6.382;2023-08-20T08:12:12;4.55;;;2.20;;
17854;SDS011;9053;53.358;6.382;2023-08-20T08:14:42;4.03;;;2.40;;
17854;SDS011;9053;53.358;6.382;2023-08-20T08:17:14;5.57;;;2.50;;
17854;SDS011;9053;53.358;6.382;2023-08-20T08:19:44;6.15;;;2.80;;
17854;SDS011;9053;53.358;6.382;2023-08-20T08:22:18;5.50;;;2.78;;
17854;SDS011;9053;53.358;6.382;2023-08-20T08:24:48;7.15;;;2.85;;
17854;SDS011;9053;53.358;6.382;2023-08-20T08:27:17;5.55;;;2.15;;
17854;SDS011;9053;53.358;6.382;2023-08-20T08:29:48;5.57;;;2.40;;
17854;SDS011;9053;53.358;6.382;2023-08-20T08:32:20;5.38;;;2.45;;
17854;SDS011;9053;53.358;6.382;2023-08-20T08:34:50;5.68;;;2.25;;
17854;SDS011;9053;53.358;6.382;2023-08-20T08:37:20;3.63;;;2.17;;
17854;SDS011;9053;53.358;6.382;2023-08-20T08:39:50;6.65;;;2.30;;
17854;SDS011;9053;53.358;6.382;2023-08-20T08:42:20;6.60;;;2.40;;
17854;SDS011;9053;53.358;6.382;2023-08-20T08:44:53;6.97;;;2.70;;
17854;SDS011;9053;53.358;6.382;2023-08-20T08:47:27;4.80;;;2.22;;
17854;SDS011;9053;53.358;6.382;2023-08-20T08:49:58;5.85;;;1.80;;
17854;SDS011;9053;53.358;6.382;2023-08-20T08:52:29;6.28;;;2.50;;
17854;SDS011;9053;53.358;6.382;2023-08-20T08:55:00;5.93;;;1.95;;
17854;SDS011;9053;53.358;6.382;2023-08-20T08:57:31;6.20;;;2.20;;
17854;SDS011;9053;53.358;6.382;2023-08-20T09:00:01;5.22;;;2.30;;
17854;SDS011;9053;53.358;6.382;2023-08-20T09:02:35;6.03;;;2.00;;
17854;SDS011;9053;53.358;6.382;2023-08-20T09:05:05;6.32;;;1.90;;
17854;SDS011;9053;53.358;6.382;2023-08-20T09:07:36;4.55;;;1.90;;
17854;SDS011;9053;53.358;6.382;2023-08-20T09:10:11;8.73;;;2.70;;
17854;SDS011;9053;53.358;6.382;2023-08-20T09:12:41;5.45;;;2.58;;
17854;SDS011;9053;53.358;6.382;2023-08-20T09:15:11;7.30;;;2.90;;
17854;SDS011;9053;53.358;6.382;2023-08-20T09:17:46;5.40;;;2.00;;
17854;SDS011;9053;53.358;6.382;2023-08-20T09:20:16;4.40;;;2.30;;
17854;SDS011;9053;53.358;6.382;2023-08-20T09:22:48;4.97;;;2.30;;
17854;SDS011;9053;53.358;6.382;2023-08-20T09:25:18;5.25;;;2.05;;
17854;SDS011;9053;53.358;6.382;2023-08-20T09:27:49;6.65;;;2.13;;
17854;SDS011;9053;53.358;6.382;2023-08-20T09:30:20;6.90;;;2.20;;
17854;SDS011;9053;53.358;6.382;2023-08-20T09:33:05;4.88;;;2.03;;
17854;SDS011;9053;53.358;6.382;2023-08-20T09:35:36;5.00;;;2.00;;
17854;SDS011;9053;53.358;6.382;2023-08-20T09:38:06;6.07;;;2.10;;
17854;SDS011;9053;53.358;6.382;2023-08-20T09:40:36;5.65;;;2.03;;
17854;SDS011;9053;53.358;6.382;2023-08-20T09:43:06;7.63;;;2.38;;
17854;SDS011;9053;53.358;6.382;2023-08-20T09:45:38;3.78;;;1.80;;
17854;SDS011;9053;53.358;6.382;2023-08-20T09:48:12;5.82;;;2.10;;
17854;SDS011;9053;53.358;6.382;2023-08-20T09:50:48;4.20;;;1.77;;
17854;SDS011;9053;53.358;6.382;2023-08-20T09:53:22;4.38;;;1.70;;
17854;SDS011;9053;53.358;6.382;2023-08-20T09:55:56;6.05;;;2.05;;
17854;SDS011;9053;53.358;6.382;2023-08-20T09:58:32;8.63;;;2.60;;
17854;SDS011;9053;53.358;6.382;2023-08-20T10:01:03;6.55;;;2.03;;
17854;SDS011;9053;53.358;6.382;2023-08-20T10:03:36;6.03;;;2.00;;
17854;SDS011;9053;53.358;6.382;2023-08-20T10:06:07;6.45;;;1.90;;
17854;SDS011;9053;53.358;6.382;2023-08-20T10:08:37;2.38;;;1.42;;
17854;SDS011;9053;53.358;6.382;2023-08-20T10:11:08;5.50;;;1.75;;
17854;SDS011;9053;53.358;6.382;2023-08-20T10:13:38;3.95;;;1.70;;
17854;SDS011;9053;53.358;6.382;2023-08-20T10:16:08;5.18;;;1.60;;
17854;SDS011;9053;53.358;6.382;2023-08-20T10:18:43;5.75;;;1.83;;
17854;SDS011;9053;53.358;6.382;2023-08-20T10:21:13;5.10;;;2.13;;
17854;SDS011;9053;53.358;6.382;2023-08-20T10:23:48;6.00;;;2.40;;
17854;SDS011;9053;53.358;6.382;2023-08-20T10:26:18;5.80;;;2.20;;
17854;SDS011;9053;53.358;6.382;2023-08-20T10:28:51;4.57;;;1.65;;
17854;SDS011;9053;53.358;6.382;2023-08-20T10:31:25;3.58;;;1.48;;
17854;SDS011;9053;53.358;6.382;2023-08-20T10:33:58;4.05;;;1.65;;
17854;SDS011;9053;53.358;6.382;2023-08-20T10:36:28;5.05;;;1.75;;
17854;SDS011;9053;53.358;6.382;2023-08-20T10:38:58;6.28;;;2.20;;
17854;SDS011;9053;53.358;6.382;2023-08-20T10:41:34;5.80;;;1.83;;
17854;SDS011;9053;53.358;6.382;2023-08-20T10:44:05;3.60;;;1.40;;
17854;SDS011;9053;53.358;6.382;2023-08-20T10:46:35;5.28;;;1.95;;
17854;SDS011;9053;53.358;6.382;2023-08-20T10:49:22;3.60;;;1.30;;
17854;SDS011;9053;53.358;6.382;2023-08-20T10:51:52;3.65;;;1.30;;
17854;SDS011;9053;53.358;6.382;2023-08-20T10:54:23;3.42;;;1.42;;
17854;SDS011;9053;53.358;6.382;2023-08-20T10:56:54;2.65;;;1.33;;
17854;SDS011;9053;53.358;6.382;2023-08-20T10:59:27;4.68;;;1.67;;
17854;SDS011;9053;53.358;6.382;2023-08-20T11:01:58;3.13;;;1.38;;
17854;SDS011;9053;53.358;6.382;2023-08-20T11:04:32;4.15;;;1.70;;
17854;SDS011;9053;53.358;6.382;2023-08-20T11:07:02;3.03;;;1.60;;
17854;SDS011;9053;53.358;6.382;2023-08-20T11:09:33;3.72;;;1.58;;
17854;SDS011;9053;53.358;6.382;2023-08-20T11:12:06;6.28;;;1.50;;
17854;SDS011;9053;53.358;6.382;2023-08-20T11:14:37;3.17;;;1.35;;
17854;SDS011;9053;53.358;6.382;2023-08-20T11:17:07;5.57;;;1.65;;
17854;SDS011;9053;53.358;6.382;2023-08-20T11:19:39;4.15;;;1.33;;
17854;SDS011;9053;53.358;6.382;2023-08-20T11:22:17;2.70;;;1.35;;
17854;SDS011;9053;53.358;6.382;2023-08-20T11:24:47;3.60;;;1.30;;
17854;SDS011;9053;53.358;6.382;2023-08-20T11:27:17;4.43;;;1.55;;
17854;SDS011;9053;53.358;6.382;2023-08-20T11:29:47;3.17;;;1.40;;
17854;SDS011;9053;53.358;6.382;2023-08-20T11:32:19;3.83;;;1.38;;
17854;SDS011;9053;53.358;6.382;2023-08-20T11:34:51;4.38;;;1.40;;
17854;SDS011;9053;53.358;6.382;2023-08-20T11:37:21;3.63;;;1.55;;
17854;SDS011;9053;53.358;6.382;2023-08-20T11:39:51;3.53;;;1.48;;
17854;SDS011;9053;53.358;6.382;2023-08-20T11:42:21;4.03;;;1.20;;
17854;SDS011;9053;53.358;6.382;2023-08-20T11:44:53;2.67;;;1.15;;
17854;SDS011;9053;53.358;6.382;2023-08-20T11:47:25;2.97;;;1.60;;
17854;SDS011;9053;53.358;6.382;2023-08-20T11:50:05;3.15;;;1.40;;
17854;SDS011;9053;53.358;6.382;2023-08-20T11:52:36;3.35;;;1.20;;
17854;SDS011;9053;53.358;6.382;2023-08-20T11:55:06;3.03;;;1.50;;
17854;SDS011;9053;53.358;6.382;2023-08-20T11:57:37;5.53;;;1.90;;
17854;SDS011;9053;53.358;6.382;2023-08-20T12:00:07;5.13;;;1.40;;
17854;SDS011;9053;53.358;6.382;2023-08-20T12:02:40;3.92;;;1.73;;
17854;SDS011;9053;53.358;6.382;2023-08-20T12:05:13;3.85;;;1.30;;
17854;SDS011;9053;53.358;6.382;2023-08-20T12:07:43;2.42;;;1.15;;
17854;SDS011;9053;53.358;6.382;2023-08-20T12:10:24;3.95;;;1.40;;
17854;SDS011;9053;53.358;6.382;2023-08-20T12:12:56;2.05;;;1.10;;
17854;SDS011;9053;53.358;6.382;2023-08-20T12:15:26;5.78;;;1.70;;
17854;SDS011;9053;53.358;6.382;2023-08-20T12:17:59;4.43;;;1.40;;
17854;SDS011;9053;53.358;6.382;2023-08-20T12:20:34;4.93;;;1.58;;
17854;SDS011;9053;53.358;6.382;2023-08-20T12:23:06;3.20;;;1.35;;
17854;SDS011;9053;53.358;6.382;2023-08-20T12:25:36;3.95;;;1.38;;
17854;SDS011;9053;53.358;6.382;2023-08-20T12:28:06;3.35;;;1.27;;
17854;SDS011;9053;53.358;6.382;2023-08-20T12:30:37;3.08;;;1.40;;
17854;SDS011;9053;53.358;6.382;2023-08-20T12:33:07;4.88;;;1.60;;
17854;SDS011;9053;53.358;6.382;2023-08-20T12:35:41;4.50;;;1.40;;
17854;SDS011;9053;53.358;6.382;2023-08-20T12:38:11;5.07;;;1.60;;
17854;SDS011;9053;53.358;6.382;2023-08-20T12:40:42;3.50;;;1.33;;
17854;SDS011;9053;53.358;6.382;2023-08-20T12:43:12;5.22;;;1.83;;
17854;SDS011;9053;53.358;6.382;2023-08-20T12:45:42;7.03;;;1.70;;
17854;SDS011;9053;53.358;6.382;2023-08-20T12:48:12;4.38;;;1.50;;
17854;SDS011;9053;53.358;6.382;2023-08-20T12:50:44;4.32;;;1.40;;
17854;SDS011;9053;53.358;6.382;2023-08-20T12:53:15;5.03;;;1.42;;
17854;SDS011;9053;53.358;6.382;2023-08-20T12:55:45;1.90;;;1.30;;
17854;SDS011;9053;53.358;6.382;2023-08-20T12:58:16;3.47;;;1.40;;
17854;SDS011;9053;53.358;6.382;2023-08-20T13:00:47;4.65;;;1.40;;
17854;SDS011;9053;53.358;6.382;2023-08-20T13:03:17;2.22;;;1.27;;
17854;SDS011;9053;53.358;6.382;2023-08-20T13:05:51;2.85;;;1.13;;
17854;SDS011;9053;53.358;6.382;2023-08-20T13:08:23;3.22;;;1.33;;
17854;SDS011;9053;53.358;6.382;2023-08-20T13:10:54;3.03;;;1.33;;
17854;SDS011;9053;53.358;6.382;2023-08-20T13:13:25;3.00;;;1.27;;
17854;SDS011;9053;53.358;6.382;2023-08-20T13:15:56;3.25;;;1.45;;
17854;SDS011;9053;53.358;6.382;2023-08-20T13:18:27;3.90;;;1.25;;
17854;SDS011;9053;53.358;6.382;2023-08-20T13:21:00;4.00;;;1.70;;
17854;SDS011;9053;53.358;6.382;2023-08-20T13:23:30;3.63;;;1.20;;
17854;SDS011;9053;53.358;6.382;2023-08-20T13:26:00;3.50;;;1.48;;
17854;SDS011;9053;53.358;6.382;2023-08-20T13:28:30;4.18;;;1.83;;
17854;SDS011;9053;53.358;6.382;2023-08-20T13:31:00;4.78;;;1.85;;
17854;SDS011;9053;53.358;6.382;2023-08-20T13:33:30;4.65;;;1.77;;
17854;SDS011;9053;53.358;6.382;2023-08-20T13:36:03;5.68;;;1.77;;
17854;SDS011;9053;53.358;6.382;2023-08-20T13:38:33;5.30;;;2.00;;
17854;SDS011;9053;53.358;6.382;2023-08-20T13:41:03;3.78;;;1.73;;
17854;SDS011;9053;53.358;6.382;2023-08-20T13:43:33;5.07;;;2.30;;
17854;SDS011;9053;53.358;6.382;2023-08-20T13:46:03;4.70;;;1.90;;
17854;SDS011;9053;53.358;6.382;2023-08-20T13:48:33;5.72;;;2.15;;
17854;SDS011;9053;53.358;6.382;2023-08-20T13:51:05;3.70;;;1.63;;
17854;SDS011;9053;53.358;6.382;2023-08-20T13:53:35;4.88;;;2.00;;
17854;SDS011;9053;53.358;6.382;2023-08-20T13:56:05;7.13;;;2.28;;
17854;SDS011;9053;53.358;6.382;2023-08-20T13:58:36;8.00;;;1.95;;
17854;SDS011;9053;53.358;6.382;2023-08-20T14:01:06;6.10;;;2.22;;
17854;SDS011;9053;53.358;6.382;2023-08-20T14:03:36;3.42;;;1.77;;
17854;SDS011;9053;53.358;6.382;2023-08-20T14:06:09;6.90;;;2.10;;
17854;SDS011;9053;53.358;6.382;2023-08-20T14:08:38;7.28;;;2.13;;
17854;SDS011;9053;53.358;6.382;2023-08-20T14:11:08;5.00;;;1.70;;
17854;SDS011;9053;53.358;6.382;2023-08-20T14:13:38;5.20;;;1.50;;
17854;SDS011;9053;53.358;6.382;2023-08-20T14:16:09;6.63;;;2.25;;
17854;SDS011;9053;53.358;6.382;2023-08-20T14:18:39;6.20;;;1.80;;
17854;SDS011;9053;53.358;6.382;2023-08-20T14:21:11;5.90;;;1.50;;
17854;SDS011;9053;53.358;6.382;2023-08-20T14:23:41;6.68;;;2.08;;
17854;SDS011;9053;53.358;6.382;2023-08-20T14:26:11;3.65;;;1.70;;
17854;SDS011;9053;53.358;6.382;2023-08-20T14:28:42;6.72;;;2.00;;
17854;SDS011;9053;53.358;6.382;2023-08-20T14:31:12;6.93;;;1.63;;
17854;SDS011;9053;53.358;6.382;2023-08-20T14:33:42;7.43;;;2.00;;
17854;SDS011;9053;53.358;6.382;2023-08-20T14:36:14;3.08;;;1.50;;
17854;SDS011;9053;53.358;6.382;2023-08-20T14:38:44;5.68;;;1.60;;
17854;SDS011;9053;53.358;6.382;2023-08-20T14:41:14;2.83;;;1.40;;
17854;SDS011;9053;53.358;6.382;2023-08-20T14:43:44;5.90;;;2.15;;
17854;SDS011;9053;53.358;6.382;2023-08-20T14:46:14;4.35;;;1.88;;
17854;SDS011;9053;53.358;6.382;2023-08-20T14:48:44;5.25;;;1.95;;
17854;SDS011;9053;53.358;6.382;2023-08-20T14:51:17;4.65;;;1.70;;
17854;SDS011;9053;53.358;6.382;2023-08-20T14:53:47;6.18;;;1.75;;
17854;SDS011;9053;53.358;6.382;2023-08-20T14:56:16;3.65;;;1.50;;
17854;SDS011;9053;53.358;6.382;2023-08-20T14:58:46;4.72;;;1.55;;
17854;SDS011;9053;53.358;6.382;2023-08-20T15:01:16;4.68;;;1.73;;
17854;SDS011;9053;53.358;6.382;2023-08-20T15:03:46;3.20;;;1.60;;
17854;SDS011;9053;53.358;6.382;2023-08-20T15:06:19;5.55;;;1.70;;
17854;SDS011;9053;53.358;6.382;2023-08-20T15:08:52;5.03;;;1.75;;
17854;SDS011;9053;53.358;6.382;2023-08-20T15:11:22;4.43;;;1.80;;
17854;SDS011;9053;53.358;6.382;2023-08-20T15:13:54;6.68;;;1.95;;
17854;SDS011;9053;53.358;6.382;2023-08-20T15:16:24;4.82;;;1.90;;
17854;SDS011;9053;53.358;6.382;2023-08-20T15:18:55;4.78;;;1.65;;
17854;SDS011;9053;53.358;6.382;2023-08-20T15:21:28;6.55;;;1.90;;
17854;SDS011;9053;53.358;6.382;2023-08-20T15:23:58;4.22;;;1.77;;